aviador You're here:

KC62 Decoded Metar

in
Report Time2017-11-18 13:55:00
UTC Time2017-11-18 14:01:10
Flight Rules lifr LIFR
Wind100° at 03 kt
W.Rank100° ranks 18
Current wind is below 100° avg. (5.7)
Visibility2414 m
Phenomena:Mist
Clouds:Overcast 004 Hf
Ceiling400 ft
Temp07°C
Dew Point07°C (100% RH)
AAT5.2°C
QNH997 hPa
Raw Report
METAR KC62 181355Z AUTO 10003KT 1 1/2SM BR OVC004 07/07 A2945 RMK AO2
T00750075=

Extra information for KC62:More info

Social comments